createdAt,value
2018-07-19T00:03:19.863Z,9.37
2018-07-19T00:06:00.512Z,8.20
2018-07-19T00:08:56.388Z,8.90
2018-07-19T00:11:30.111Z,8.40
2018-07-19T00:16:59.185Z,8.20
2018-07-19T00:19:59.639Z,7.97
2018-07-19T00:25:15.963Z,8.87
2018-07-19T00:28:13.194Z,8.50
2018-07-19T00:30:48.066Z,8.00
2018-07-19T00:33:26.006Z,7.57
2018-07-19T00:36:14.531Z,7.90
2018-07-19T00:38:50.498Z,8.30
2018-07-19T00:41:31.545Z,9.97
2018-07-19T00:44:16.669Z,8.83
2018-07-19T00:47:16.440Z,7.93
2018-07-19T00:52:52.491Z,8.57
2018-07-19T00:55:41.751Z,8.73
2018-07-19T01:00:55.642Z,9.80
2018-07-19T01:03:25.162Z,8.60
2018-07-19T01:05:58.927Z,9.20
2018-07-19T01:08:30.802Z,8.20
2018-07-19T01:11:13.966Z,8.93
2018-07-19T01:13:53.810Z,8.90
2018-07-19T01:16:59.126Z,8.90
2018-07-19T01:19:32.097Z,8.90
2018-07-19T01:22:33.692Z,9.30
2018-07-19T01:25:09.552Z,8.40
2018-07-19T01:30:29.202Z,8.67
2018-07-19T01:33:06.152Z,8.60
2018-07-19T01:35:39.432Z,8.80
2018-07-19T01:38:14.660Z,9.50
2018-07-19T01:40:53.728Z,8.23
2018-07-19T01:43:35.817Z,8.83
2018-07-19T01:46:18.177Z,9.20
2018-07-19T01:48:53.047Z,9.67
2018-07-19T01:51:32.481Z,10.37
2018-07-19T01:54:00.709Z,8.70
2018-07-19T01:56:30.660Z,9.40
2018-07-19T01:58:59.640Z,8.70
2018-07-19T02:01:28.462Z,9.60
2018-07-19T02:03:57.165Z,8.80
2018-07-19T02:06:25.627Z,8.77
2018-07-19T02:08:53.838Z,9.37
2018-07-19T02:11:22.079Z,9.40
2018-07-19T02:13:50.273Z,9.53
2018-07-19T02:16:18.493Z,9.43
2018-07-19T02:18:46.744Z,11.10
2018-07-19T02:21:14.957Z,10.67
2018-07-19T02:23:43.169Z,9.50
2018-07-19T02:26:11.396Z,10.60
2018-07-19T02:28:39.611Z,10.67
2018-07-19T02:31:07.885Z,10.80
2018-07-19T02:33:36.122Z,10.73
2018-07-19T02:36:04.354Z,9.90
2018-07-19T02:38:32.581Z,9.20
2018-07-19T02:41:00.787Z,10.40
2018-07-19T02:43:29.015Z,9.00
2018-07-19T02:45:57.221Z,8.87
2018-07-19T02:48:25.429Z,9.00
2018-07-19T02:50:53.631Z,9.10
2018-07-19T02:53:21.838Z,9.50
2018-07-19T02:55:50.043Z,9.70
2018-07-19T02:58:18.269Z,9.40
2018-07-19T03:00:46.487Z,9.47
2018-07-19T03:03:14.723Z,8.40
2018-07-19T03:05:42.948Z,8.40
2018-07-19T03:08:11.150Z,8.73
2018-07-19T03:10:39.309Z,8.20
2018-07-19T03:13:07.462Z,8.20
2018-07-19T03:15:35.635Z,8.63
2018-07-19T03:18:03.807Z,7.83
2018-07-19T03:20:31.978Z,9.20
2018-07-19T03:23:00.144Z,9.63
2018-07-19T03:25:28.294Z,9.60
2018-07-19T03:27:56.482Z,9.27
2018-07-19T03:30:24.652Z,8.90
2018-07-19T03:32:52.809Z,8.40
2018-07-19T03:35:20.977Z,8.07
2018-07-19T03:37:49.199Z,9.17
2018-07-19T03:40:17.361Z,9.10
2018-07-19T03:42:45.545Z,9.30
2018-07-19T03:45:13.718Z,9.20
2018-07-19T03:47:41.898Z,8.83
2018-07-19T03:50:10.053Z,8.73
2018-07-19T03:52:38.251Z,8.60
2018-07-19T03:55:06.424Z,8.47
2018-07-19T03:57:34.578Z,8.27
2018-07-19T04:00:02.744Z,8.33
2018-07-19T04:02:30.926Z,7.67
2018-07-19T04:04:59.085Z,8.00
2018-07-19T04:07:27.242Z,8.90
2018-07-19T04:09:55.718Z,7.67
2018-07-19T04:12:23.938Z,8.40
2018-07-19T04:14:52.321Z,7.90
2018-07-19T04:17:20.529Z,8.57
2018-07-19T04:19:48.842Z,9.07
2018-07-19T04:22:17.052Z,9.13
2018-07-19T04:24:45.589Z,7.70
2018-07-19T04:27:13.865Z,7.43
2018-07-19T04:29:42.122Z,8.60
2018-07-19T04:32:10.325Z,7.83
2018-07-19T04:34:38.518Z,8.70
2018-07-19T04:37:06.735Z,8.93
2018-07-19T04:39:34.942Z,8.67
2018-07-19T04:42:03.181Z,7.83
2018-07-19T04:44:31.437Z,7.27
2018-07-19T04:47:00.451Z,7.60
2018-07-19T04:49:30.963Z,9.13
2018-07-19T04:51:59.649Z,8.53
2018-07-19T04:54:27.904Z,9.00
2018-07-19T04:56:56.077Z,8.70
2018-07-19T04:59:24.387Z,8.27
2018-07-19T05:01:52.709Z,9.00
2018-07-19T05:04:20.810Z,8.47
2018-07-19T05:06:49.024Z,8.77
2018-07-19T05:09:17.286Z,8.20
2018-07-19T05:11:45.445Z,9.30
2018-07-19T05:14:13.608Z,10.10
2018-07-19T05:16:41.786Z,9.17
2018-07-19T05:19:09.930Z,9.17
2018-07-19T05:21:38.137Z,10.20
2018-07-19T05:24:06.458Z,8.90
2018-07-19T05:26:34.635Z,9.30
2018-07-19T05:29:02.781Z,9.17
2018-07-19T05:31:30.947Z,8.87
2018-07-19T05:33:59.089Z,9.10
2018-07-19T05:36:27.270Z,8.90
2018-07-19T05:38:55.905Z,8.97
2018-07-19T05:41:24.095Z,9.80
2018-07-19T05:43:52.251Z,8.87
2018-07-19T05:46:20.447Z,8.90
2018-07-19T05:48:48.624Z,8.70
2018-07-19T05:51:16.781Z,9.50
2018-07-19T05:53:44.938Z,8.77
2018-07-19T05:56:13.078Z,8.40
2018-07-19T05:58:41.254Z,7.43
2018-07-19T06:01:09.418Z,8.50
2018-07-19T06:03:37.568Z,8.67
2018-07-19T06:06:05.720Z,8.43
2018-07-19T06:08:33.906Z,8.83
2018-07-19T06:11:02.142Z,7.60
2018-07-19T06:13:30.370Z,7.57
2018-07-19T06:15:58.625Z,8.13
2018-07-19T06:18:26.812Z,7.30
2018-07-19T06:20:55.018Z,7.50
2018-07-19T06:23:23.246Z,8.10
2018-07-19T06:25:51.446Z,9.20
2018-07-19T06:28:19.413Z,7.90
2018-07-19T06:30:47.627Z,7.97
2018-07-19T06:33:15.858Z,7.90
2018-07-19T06:35:44.070Z,10.23
2018-07-19T06:38:12.279Z,7.90
2018-07-19T06:40:40.515Z,7.30
2018-07-19T06:43:08.739Z,7.20
2018-07-19T06:45:36.966Z,7.70
2018-07-19T06:48:05.207Z,7.87
2018-07-19T06:50:33.429Z,6.80
2018-07-19T06:53:02.026Z,6.70
2018-07-19T06:55:30.225Z,7.57
2018-07-19T06:57:58.437Z,7.30
2018-07-19T07:00:26.653Z,6.40
2018-07-19T07:02:54.883Z,6.87
2018-07-19T07:05:23.098Z,6.20
2018-07-19T07:07:51.332Z,6.50
2018-07-19T07:10:19.485Z,6.57
2018-07-19T07:12:47.668Z,6.00
2018-07-19T07:15:15.820Z,6.60
2018-07-19T07:17:44.012Z,5.83
2018-07-19T07:20:12.317Z,5.93
2018-07-19T07:22:40.507Z,6.07
2018-07-19T07:25:08.688Z,6.07
2018-07-19T07:27:36.900Z,6.13
2018-07-19T07:30:05.613Z,5.83
2018-07-19T07:32:33.773Z,5.70
2018-07-19T07:35:01.949Z,5.53
2018-07-19T07:37:30.141Z,6.50
2018-07-19T07:39:58.309Z,5.50
2018-07-19T07:42:26.239Z,6.47
2018-07-19T07:44:54.398Z,5.97
2018-07-19T07:47:22.641Z,5.63
2018-07-19T07:49:50.799Z,6.00
2018-07-19T07:52:19.157Z,6.10
2018-07-19T07:54:47.353Z,5.80
2018-07-19T07:57:15.510Z,5.70
2018-07-19T07:59:43.673Z,5.90
2018-07-19T08:02:11.829Z,4.90
2018-07-19T08:04:40.163Z,5.20
2018-07-19T08:07:08.314Z,5.80
2018-07-19T08:09:36.530Z,5.17
2018-07-19T08:12:04.766Z,5.50
2018-07-19T08:14:33.250Z,5.90
2018-07-19T08:17:01.477Z,4.90
2018-07-19T08:19:29.673Z,5.47
2018-07-19T08:21:57.894Z,5.23
2018-07-19T08:24:26.086Z,5.33
2018-07-19T08:26:54.297Z,4.87
2018-07-19T08:29:22.520Z,4.97
2018-07-19T08:31:50.905Z,5.77
2018-07-19T08:34:19.101Z,4.97
2018-07-19T08:36:47.307Z,4.50
2018-07-19T08:39:15.533Z,5.43
2018-07-19T08:41:44.839Z,4.90
2018-07-19T08:44:13.055Z,5.00
2018-07-19T08:46:41.274Z,5.07
2018-07-19T08:49:09.540Z,4.70
2018-07-19T08:51:37.793Z,4.50
2018-07-19T08:54:05.981Z,5.13
2018-07-19T08:56:34.246Z,4.40
2018-07-19T08:59:02.446Z,4.70
2018-07-19T09:01:31.451Z,4.50
2018-07-19T09:03:59.695Z,5.00
2018-07-19T09:06:27.922Z,4.10
2018-07-19T09:08:56.103Z,4.23
2018-07-19T09:11:24.283Z,3.50
2018-07-19T09:13:52.474Z,4.00
2018-07-19T09:16:20.629Z,3.90
2018-07-19T09:18:48.795Z,3.63
2018-07-19T09:21:17.002Z,4.00
2018-07-19T09:23:45.303Z,3.80
2018-07-19T09:26:13.485Z,4.07
2018-07-19T09:28:41.642Z,4.57
2018-07-19T09:31:09.803Z,4.37
2018-07-19T09:33:37.743Z,4.20
2018-07-19T09:36:06.046Z,4.50
2018-07-19T09:38:34.336Z,4.57
2018-07-19T09:41:02.415Z,4.20
2018-07-19T09:43:30.578Z,3.10
2018-07-19T09:45:58.750Z,3.13
2018-07-19T09:48:26.913Z,3.80
2018-07-19T09:50:55.088Z,3.47
2018-07-19T09:53:23.277Z,4.67
2018-07-19T09:55:51.485Z,3.40
2018-07-19T09:58:19.356Z,3.23
2018-07-19T10:00:53.006Z,3.60
2018-07-19T10:03:21.158Z,3.90
2018-07-19T10:05:49.344Z,3.57
2018-07-19T10:08:17.501Z,3.10
2018-07-19T10:10:45.727Z,3.13
2018-07-19T10:13:13.940Z,3.43
2018-07-19T10:15:42.185Z,3.67
2018-07-19T10:18:10.401Z,3.83
2018-07-19T10:20:38.623Z,3.60
2018-07-19T10:23:06.961Z,3.70
2018-07-19T10:25:35.183Z,3.40
2018-07-19T10:28:03.393Z,3.63
2018-07-19T10:30:31.608Z,3.37
2018-07-19T10:32:59.827Z,3.47
2018-07-19T10:35:28.089Z,3.23
2018-07-19T10:37:56.297Z,3.57
2018-07-19T10:40:24.499Z,3.50
2018-07-19T10:42:52.721Z,3.90
2018-07-19T10:45:20.925Z,3.90
2018-07-19T10:47:49.143Z,3.87
2018-07-19T10:50:17.372Z,3.80
2018-07-19T10:52:45.603Z,3.83
2018-07-19T10:55:13.793Z,3.90
2018-07-19T10:57:42.016Z,4.50
2018-07-19T11:00:09.958Z,4.33
2018-07-19T11:02:38.243Z,3.87
2018-07-19T11:05:06.418Z,3.60
2018-07-19T11:07:34.651Z,4.30
2018-07-19T11:10:02.837Z,3.80
2018-07-19T11:12:30.972Z,3.50
2018-07-19T11:14:59.478Z,3.60
2018-07-19T11:17:27.619Z,4.20
2018-07-19T11:19:55.779Z,4.33
2018-07-19T11:22:23.957Z,4.03
2018-07-19T11:24:51.861Z,4.30
2018-07-19T11:27:20.028Z,3.93
2018-07-19T11:29:48.183Z,3.90
2018-07-19T11:32:16.513Z,3.87
2018-07-19T11:34:44.750Z,3.90
2018-07-19T11:37:12.923Z,3.33
2018-07-19T11:39:41.106Z,3.90
2018-07-19T11:42:09.344Z,4.20
2018-07-19T11:44:37.489Z,3.67
2018-07-19T11:47:05.662Z,3.90
2018-07-19T11:49:33.836Z,3.90
2018-07-19T11:52:02.006Z,3.90
2018-07-19T11:54:30.258Z,3.63
2018-07-19T11:56:58.481Z,4.00
2018-07-19T11:59:26.648Z,4.03
2018-07-19T12:01:54.807Z,4.07
2018-07-19T12:04:22.982Z,3.90
2018-07-19T12:06:51.153Z,3.20
2018-07-19T12:09:19.491Z,3.20
2018-07-19T12:11:48.082Z,4.10
2018-07-19T12:14:16.278Z,3.90
2018-07-19T12:16:44.501Z,4.17
2018-07-19T12:19:12.703Z,3.33
2018-07-19T12:21:41.015Z,3.77
2018-07-19T12:24:09.250Z,3.50
2018-07-19T12:26:37.465Z,3.43
2018-07-19T12:29:05.699Z,2.83
2018-07-19T12:31:33.929Z,3.40
2018-07-19T12:34:02.143Z,3.03
2018-07-19T12:36:30.371Z,3.00
2018-07-19T12:38:58.579Z,3.00
2018-07-19T12:41:26.817Z,3.40
2018-07-19T12:43:55.022Z,3.80
2018-07-19T12:46:23.676Z,3.07
2018-07-19T12:48:51.924Z,2.57
2018-07-19T12:51:20.151Z,3.27
2018-07-19T12:53:48.358Z,5.50
2018-07-19T12:56:16.558Z,3.00
2018-07-19T12:58:44.783Z,3.07
2018-07-19T13:01:13.037Z,3.33
2018-07-19T13:03:41.261Z,3.40
2018-07-19T13:06:09.465Z,3.50
2018-07-19T13:08:37.675Z,3.50
2018-07-19T13:11:05.889Z,3.17
2018-07-19T13:13:34.091Z,3.77
2018-07-19T13:16:02.295Z,3.53
2018-07-19T13:18:30.519Z,3.30
2018-07-19T13:20:58.738Z,3.20
2018-07-19T13:23:26.925Z,3.53
2018-07-19T13:25:55.134Z,4.03
2018-07-19T13:28:23.348Z,3.40
2018-07-19T13:30:51.584Z,3.90
2018-07-19T13:33:19.906Z,3.50
2018-07-19T13:35:48.768Z,3.00
2018-07-19T13:38:17.002Z,2.97
2018-07-19T13:40:45.204Z,3.13
2018-07-19T13:43:13.421Z,3.73
2018-07-19T13:45:41.628Z,3.10
2018-07-19T13:48:09.846Z,3.10
2018-07-19T13:50:38.138Z,3.60
2018-07-19T13:53:51.689Z,3.40
2018-07-19T13:56:19.992Z,3.40
2018-07-19T13:58:48.194Z,3.40
2018-07-19T14:01:16.406Z,3.80
2018-07-19T14:03:44.620Z,3.47
2018-07-19T14:06:12.847Z,2.97
2018-07-19T14:08:41.065Z,3.50
2018-07-19T14:11:09.219Z,3.53
2018-07-19T14:13:37.383Z,3.20
2018-07-19T14:16:05.532Z,3.30
2018-07-19T14:18:33.708Z,3.73
2018-07-19T14:21:01.853Z,3.40
2018-07-19T14:23:30.025Z,2.90
2018-07-19T14:25:58.187Z,3.07
2018-07-19T14:28:26.384Z,3.30
2018-07-19T14:30:54.513Z,3.63
2018-07-19T14:33:22.683Z,3.30
2018-07-19T14:35:50.856Z,3.17
2018-07-19T14:38:19.041Z,3.10
2018-07-19T14:40:47.187Z,3.30
2018-07-19T14:43:15.349Z,3.50
2018-07-19T14:45:43.506Z,3.40
2018-07-19T14:48:11.884Z,3.50
2018-07-19T14:50:40.000Z,3.17
2018-07-19T14:53:08.170Z,3.10
2018-07-19T14:55:36.126Z,3.20
2018-07-19T14:58:04.303Z,2.43
2018-07-19T15:00:32.473Z,3.50
2018-07-19T15:03:00.625Z,3.73
2018-07-19T15:05:28.797Z,3.20
2018-07-19T15:07:56.949Z,3.33
2018-07-19T15:10:25.194Z,3.60
2018-07-19T15:12:53.398Z,3.57
2018-07-19T15:15:21.610Z,3.57
2018-07-19T15:17:49.836Z,3.13
2018-07-19T15:20:18.064Z,3.77
2018-07-19T15:25:20.931Z,3.00
2018-07-19T15:27:49.148Z,2.90
2018-07-19T15:30:17.362Z,3.27
2018-07-19T15:32:45.583Z,2.87
2018-07-19T15:35:13.789Z,3.40
2018-07-19T15:37:42.006Z,3.80
2018-07-19T15:40:10.822Z,3.10
2018-07-19T15:42:39.028Z,3.23
2018-07-19T15:45:07.593Z,3.00
2018-07-19T15:47:35.546Z,3.47
2018-07-19T15:50:03.842Z,3.03
2018-07-19T15:52:32.031Z,2.80
2018-07-19T15:55:00.251Z,3.30
2018-07-19T15:57:28.487Z,3.40
2018-07-19T15:59:56.736Z,3.20
2018-07-19T16:02:24.823Z,3.00
2018-07-19T16:04:53.043Z,2.90
2018-07-19T16:07:21.282Z,2.93
2018-07-19T16:09:49.482Z,3.20
2018-07-19T16:12:17.711Z,2.70
2018-07-19T16:14:46.914Z,3.50
2018-07-19T16:17:15.123Z,2.87
2018-07-19T16:19:43.322Z,3.37
2018-07-19T16:22:11.547Z,3.37
2018-07-19T16:24:39.779Z,3.37
2018-07-19T16:27:07.996Z,3.10
2018-07-19T16:29:36.198Z,3.70
2018-07-19T16:32:04.427Z,3.50
2018-07-19T16:34:32.695Z,3.37
2018-07-19T16:37:00.854Z,2.60
2018-07-19T16:39:29.047Z,3.80
2018-07-19T16:41:57.250Z,3.20
2018-07-19T16:44:25.460Z,2.93
2018-07-19T16:46:53.734Z,2.70
2018-07-19T16:49:21.946Z,3.10
2018-07-19T16:51:50.159Z,3.30
2018-07-19T16:54:18.468Z,3.23
2018-07-19T16:56:46.693Z,3.37
2018-07-19T16:59:14.920Z,2.80
2018-07-19T17:01:43.174Z,2.60
2018-07-19T17:04:11.395Z,3.20
2018-07-19T17:06:39.603Z,3.03
2018-07-19T17:09:09.172Z,3.07
2018-07-19T17:11:37.090Z,3.20
2018-07-19T17:14:05.559Z,3.00
2018-07-19T17:16:33.757Z,2.90
2018-07-19T17:19:01.915Z,3.50
2018-07-19T17:21:30.066Z,2.97
2018-07-19T17:23:58.238Z,3.33
2018-07-19T17:26:26.411Z,3.50
2018-07-19T17:28:54.623Z,2.77
2018-07-19T17:31:23.052Z,3.60
2018-07-19T17:33:51.242Z,3.27
2018-07-19T17:36:19.403Z,3.93
2018-07-19T17:38:47.650Z,3.30
2018-07-19T17:41:15.866Z,3.57
2018-07-19T17:43:44.012Z,3.23
2018-07-19T17:46:12.273Z,3.50
2018-07-19T17:48:40.428Z,3.13
2018-07-19T17:51:08.599Z,2.60
2018-07-19T17:53:36.755Z,3.33
2018-07-19T17:56:04.905Z,3.80
2018-07-19T17:58:33.078Z,3.60
2018-07-19T18:01:01.241Z,4.67
2018-07-19T18:03:29.403Z,3.53
2018-07-19T18:05:57.566Z,3.63
2018-07-19T18:08:25.500Z,3.83
2018-07-19T18:10:53.741Z,4.40
2018-07-19T18:13:23.205Z,3.83
2018-07-19T18:15:51.406Z,4.40
2018-07-19T18:18:19.880Z,3.53
2018-07-19T18:20:48.096Z,3.60
2018-07-19T18:23:16.299Z,3.70
2018-07-19T18:25:44.497Z,3.97
2018-07-19T18:28:12.707Z,3.97
2018-07-19T18:30:41.020Z,3.90
2018-07-19T18:33:09.867Z,3.60
2018-07-19T18:35:38.078Z,3.10
2018-07-19T18:38:06.894Z,3.20
2018-07-19T18:40:35.364Z,3.37
2018-07-19T18:43:03.611Z,3.57
2018-07-19T18:45:31.857Z,3.40
2018-07-19T18:48:00.131Z,3.30
2018-07-19T18:50:28.331Z,3.10
2018-07-19T18:52:56.540Z,3.20
2018-07-19T18:55:24.758Z,4.30
2018-07-19T18:57:53.053Z,4.17
2018-07-19T19:00:21.331Z,3.90
2018-07-19T19:02:49.617Z,3.60
2018-07-19T19:05:18.107Z,4.17
2018-07-19T19:07:46.665Z,3.87
2018-07-19T19:10:14.929Z,3.80
2018-07-19T19:12:43.227Z,4.30
2018-07-19T19:15:11.422Z,4.40
2018-07-19T19:17:39.738Z,4.33
2018-07-19T19:20:08.044Z,4.33
2018-07-19T19:22:36.385Z,4.57
2018-07-19T19:25:04.774Z,4.20
2018-07-19T19:27:33.009Z,4.53
2018-07-19T19:30:01.344Z,4.70
2018-07-19T19:32:29.636Z,4.90
2018-07-19T19:34:57.969Z,4.40
2018-07-19T19:37:26.323Z,4.50
2018-07-19T19:41:23.787Z,4.37
2018-07-19T19:43:52.088Z,5.27
2018-07-19T19:46:20.414Z,4.90
2018-07-19T19:48:48.697Z,4.20
2018-07-19T19:51:17.019Z,4.90
2018-07-19T19:53:45.513Z,5.00
2018-07-19T19:56:13.808Z,4.80
2018-07-19T19:58:42.194Z,4.90
2018-07-19T20:01:10.333Z,5.60
2018-07-19T20:03:38.586Z,4.53
2018-07-19T20:06:06.867Z,5.40
2018-07-19T20:08:35.184Z,5.50
2018-07-19T20:11:03.395Z,5.87
2018-07-19T20:13:31.701Z,5.37
2018-07-19T20:15:59.948Z,5.40
2018-07-19T20:18:28.183Z,5.03
2018-07-19T20:20:56.406Z,5.40
2018-07-19T20:23:24.636Z,5.13
2018-07-19T20:25:52.856Z,4.37
2018-07-19T20:28:21.063Z,5.60
2018-07-19T20:30:49.315Z,5.60
2018-07-19T20:33:17.623Z,5.60
2018-07-19T20:35:46.341Z,5.20
2018-07-19T20:38:14.759Z,6.57
2018-07-19T20:40:43.038Z,6.57
2018-07-19T20:43:11.096Z,5.77
2018-07-19T20:45:39.388Z,5.87
2018-07-19T20:48:07.733Z,5.80
2018-07-19T20:50:36.022Z,5.90
2018-07-19T20:53:04.405Z,5.63
2018-07-19T20:55:32.665Z,5.90
2018-07-19T20:58:00.877Z,5.13
2018-07-19T21:00:29.098Z,6.10
2018-07-19T21:02:57.304Z,5.37
2018-07-19T21:05:25.532Z,6.17
2018-07-19T21:07:53.780Z,5.87
2018-07-19T21:10:22.000Z,6.93
2018-07-19T21:12:50.457Z,6.27
2018-07-19T21:15:18.818Z,6.00
2018-07-19T21:17:47.299Z,6.40
2018-07-19T21:20:15.670Z,6.37
2018-07-19T21:22:43.941Z,5.73
2018-07-19T21:25:12.213Z,5.47
2018-07-19T21:27:40.491Z,6.57
2018-07-19T21:30:08.913Z,5.63
2018-07-19T21:32:37.203Z,5.67
2018-07-19T21:35:05.684Z,6.80
2018-07-19T21:37:33.895Z,6.67
2018-07-19T21:40:02.117Z,6.83
2018-07-19T21:42:30.333Z,6.27
2018-07-19T21:44:58.583Z,6.30
2018-07-19T21:47:26.794Z,6.90
2018-07-19T21:49:55.032Z,6.80
2018-07-19T21:52:23.250Z,5.47
2018-07-19T21:54:51.449Z,6.30
2018-07-19T21:57:20.014Z,6.83
2018-07-19T21:59:48.218Z,5.90
2018-07-19T22:02:16.437Z,6.10
2018-07-19T22:04:44.649Z,6.20
2018-07-19T22:07:12.902Z,6.30
2018-07-19T22:09:41.181Z,5.40
2018-07-19T22:12:09.318Z,5.83
2018-07-19T22:14:37.524Z,6.57
2018-07-19T22:17:05.804Z,6.23
2018-07-19T22:19:33.969Z,5.67
2018-07-19T22:22:15.213Z,6.33
2018-07-19T22:24:43.421Z,6.13
2018-07-19T22:27:13.373Z,6.03
2018-07-19T22:29:41.557Z,6.30
2018-07-19T22:32:09.781Z,6.50
2018-07-19T22:34:37.979Z,7.30
2018-07-19T22:37:06.278Z,5.40
2018-07-19T22:39:34.974Z,5.97
2018-07-19T22:42:04.963Z,6.40
2018-07-19T22:44:33.167Z,6.60
2018-07-19T22:47:01.394Z,6.70
2018-07-19T22:49:29.618Z,7.00
2018-07-19T22:51:57.593Z,6.80
2018-07-19T22:54:29.374Z,7.60
2018-07-19T22:56:57.637Z,7.00
2018-07-19T22:59:26.348Z,6.60
2018-07-19T23:01:54.577Z,6.00
2018-07-19T23:04:22.798Z,6.37
2018-07-19T23:06:51.053Z,6.23
2018-07-19T23:09:19.208Z,6.80
2018-07-19T23:11:47.382Z,6.73
2018-07-19T23:14:15.547Z,6.27
2018-07-19T23:16:43.706Z,7.00
2018-07-19T23:19:11.883Z,6.23
2018-07-19T23:21:40.050Z,7.23
2018-07-19T23:24:08.222Z,7.17
2018-07-19T23:26:36.404Z,6.40
2018-07-19T23:29:04.559Z,7.37
2018-07-19T23:31:32.704Z,6.83
2018-07-19T23:34:00.841Z,7.67
2018-07-19T23:36:39.776Z,7.20
2018-07-19T23:39:11.226Z,7.40
2018-07-19T23:41:49.735Z,7.37
2018-07-19T23:44:24.172Z,6.17
2018-07-19T23:46:57.885Z,7.40
2018-07-19T23:49:26.043Z,7.80
2018-07-19T23:51:54.225Z,7.60
2018-07-19T23:54:22.383Z,7.80
2018-07-19T23:56:50.622Z,6.90
2018-07-19T23:59:18.770Z,7.80
